Time;durP1;ratioP1;P1;durP2;ratioP2;P2;SDS_P1;SDS_P2;PMS_P1;PMS_P2;Temp;Humidity;BMP_temperature;BMP_pressure;BME280_temperature;BME280_humidity;BME280_pressure;Samples;Min_cycle;Max_cycle;Signal;HPM_P1;HPM_P2
2023/10/08 00:00:47;;;;;;;5.87;3.00;;;;;;;;;;5049710;28;20912;-70
2023/10/08 00:03:13;;;;;;;7.27;4.50;;;;;;;;;;5049487;28;20411;-70
2023/10/08 00:05:40;;;;;;;10.33;4.13;;;;;;;;;;5033867;28;20495;-70
2023/10/08 00:08:06;;;;;;;13.30;4.10;;;;;;;;;;5033982;28;20511;-70
2023/10/08 00:10:42;;;;;;;10.13;3.70;;;;;;;;;;5033790;28;20444;-70
2023/10/08 00:13:09;;;;;;;6.10;3.17;;;;;;;;;;5034067;28;20406;-70
2023/10/08 00:15:41;;;;;;;7.93;3.83;;;;;;;;;;5033725;28;20411;-70
2023/10/08 00:18:11;;;;;;;6.43;4.50;;;;;;;;;;5033583;28;20465;-70
2023/10/08 00:21:16;;;;;;;5.67;3.87;;;;;;;;;;5049206;28;20416;-70
2023/10/08 00:23:27;;;;;;;5.80;3.37;;;;;;;;;;5033720;28;20449;-70
2023/10/08 00:25:54;;;;;;;9.23;4.80;;;;;;;;;;5048916;28;20957;-68
2023/10/08 00:28:21;;;;;;;6.30;2.93;;;;;;;;;;5033756;28;20506;-70
2023/10/08 00:30:47;;;;;;;9.47;4.20;;;;;;;;;;5048286;28;20442;-70
2023/10/08 00:33:14;;;;;;;10.60;4.13;;;;;;;;;;5033924;28;20505;-69
2023/10/08 00:35:41;;;;;;;7.53;4.00;;;;;;;;;;5033875;28;20414;-69
2023/10/08 00:38:20;;;;;;;6.30;3.63;;;;;;;;;;5033626;28;20844;-69
2023/10/08 00:40:46;;;;;;;7.70;3.90;;;;;;;;;;5049125;28;20619;-69
2023/10/08 00:43:31;;;;;;;4.40;3.17;;;;;;;;;;5048853;28;20819;-70
2023/10/08 00:45:58;;;;;;;8.03;3.53;;;;;;;;;;5033307;28;20464;-70
2023/10/08 00:48:28;;;;;;;4.70;3.03;;;;;;;;;;5033254;28;20442;-70
2023/10/08 00:51:08;;;;;;;4.47;2.90;;;;;;;;;;5033192;28;20461;-70
2023/10/08 00:53:39;;;;;;;7.10;3.33;;;;;;;;;;5048455;28;20969;-69
2023/10/08 00:56:13;;;;;;;7.70;3.63;;;;;;;;;;5033177;28;20416;-70
2023/10/08 00:58:40;;;;;;;8.33;3.03;;;;;;;;;;5048658;28;20769;-70
2023/10/08 01:01:10;;;;;;;4.30;2.60;;;;;;;;;;5033052;28;21016;-69
2023/10/08 01:03:36;;;;;;;7.30;3.50;;;;;;;;;;5048568;28;20432;-69
2023/10/08 01:06:04;;;;;;;5.70;2.87;;;;;;;;;;5048390;28;20476;-70
2023/10/08 01:08:36;;;;;;;9.03;3.73;;;;;;;;;;5033134;28;20925;-70
2023/10/08 01:11:19;;;;;;;6.43;3.47;;;;;;;;;;5048522;28;20426;-69
2023/10/08 01:13:46;;;;;;;4.93;3.70;;;;;;;;;;5048142;28;20847;-70
2023/10/08 01:16:13;;;;;;;5.33;2.87;;;;;;;;;;5048145;28;20418;-70
2023/10/08 01:18:46;;;;;;;6.90;2.80;;;;;;;;;;5033149;28;20438;-69
2023/10/08 01:21:22;;;;;;;8.27;3.70;;;;;;;;;;5033168;28;20402;-69
2023/10/08 01:23:48;;;;;;;5.40;3.00;;;;;;;;;;5032831;28;20410;-70
2023/10/08 01:26:15;;;;;;;7.37;2.63;;;;;;;;;;5032734;28;20420;-70
2023/10/08 01:28:43;;;;;;;6.53;3.57;;;;;;;;;;5033058;28;20791;-70
2023/10/08 01:31:12;;;;;;;8.43;3.70;;;;;;;;;;5048260;28;20985;-70
2023/10/08 01:33:41;;;;;;;6.37;4.60;;;;;;;;;;5047869;28;20464;-70
2023/10/08 01:36:12;;;;;;;5.57;3.07;;;;;;;;;;5032367;28;20457;-70
2023/10/08 01:38:39;;;;;;;7.87;3.10;;;;;;;;;;5047850;28;20426;-69
2023/10/08 01:41:18;;;;;;;5.70;3.23;;;;;;;;;;5032606;28;20830;-69
2023/10/08 01:43:44;;;;;;;4.57;3.50;;;;;;;;;;5047908;28;20776;-70
2023/10/08 01:46:11;;;;;;;6.37;3.27;;;;;;;;;;5032415;28;20418;-70
2023/10/08 01:48:37;;;;;;;7.30;4.07;;;;;;;;;;5047908;28;20427;-69
2023/10/08 01:51:09;;;;;;;4.80;2.87;;;;;;;;;;5047982;28;20431;-70
2023/10/08 01:53:35;;;;;;;4.93;3.10;;;;;;;;;;5047577;28;20475;-69
2023/10/08 01:56:04;;;;;;;6.20;3.13;;;;;;;;;;5047724;28;20419;-69
2023/10/08 01:58:30;;;;;;;6.60;3.10;;;;;;;;;;5032402;28;20427;-70
2023/10/08 02:00:59;;;;;;;5.33;3.57;;;;;;;;;;5047667;28;20794;-70
2023/10/08 02:03:27;;;;;;;12.40;3.93;;;;;;;;;;5032100;28;20448;-70
2023/10/08 02:05:53;;;;;;;8.03;4.17;;;;;;;;;;5031939;28;20848;-70
2023/10/08 02:08:20;;;;;;;5.83;3.10;;;;;;;;;;5047473;28;20945;-69
2023/10/08 02:10:47;;;;;;;7.00;3.13;;;;;;;;;;5032100;28;20420;-71
2023/10/08 02:13:14;;;;;;;5.90;3.20;;;;;;;;;;5047202;28;20453;-71
2023/10/08 02:15:50;;;;;;;6.30;3.10;;;;;;;;;;5031813;28;20761;-71
2023/10/08 02:18:17;;;;;;;5.20;2.83;;;;;;;;;;5069897;22;20499;-68
2023/10/08 02:20:43;;;;;;;6.70;3.20;;;;;;;;;;5051633;28;20398;-68
2023/10/08 02:23:11;;;;;;;6.33;2.70;;;;;;;;;;5051671;28;20401;-68
2023/10/08 02:25:38;;;;;;;8.77;3.70;;;;;;;;;;5051437;28;20404;-68
2023/10/08 02:28:04;;;;;;;6.27;3.27;;;;;;;;;;5051616;28;20453;-67
2023/10/08 02:30:30;;;;;;;6.87;2.93;;;;;;;;;;5051544;28;20770;-68
2023/10/08 02:32:58;;;;;;;5.40;3.50;;;;;;;;;;5051414;28;20400;-68
2023/10/08 02:35:24;;;;;;;7.20;3.53;;;;;;;;;;5051602;28;20920;-67
2023/10/08 02:37:50;;;;;;;7.50;3.57;;;;;;;;;;5051399;28;20528;-68
2023/10/08 02:40:19;;;;;;;8.30;3.40;;;;;;;;;;5052775;28;20500;-69
2023/10/08 02:42:45;;;;;;;5.90;2.43;;;;;;;;;;5062018;28;20913;-69
2023/10/08 02:45:13;;;;;;;8.63;3.97;;;;;;;;;;5062030;28;20412;-68
2023/10/08 02:47:45;;;;;;;4.90;2.57;;;;;;;;;;5061633;28;20512;-68
2023/10/08 02:50:16;;;;;;;7.33;3.33;;;;;;;;;;5061374;28;20409;-68
2023/10/08 02:52:44;;;;;;;13.33;3.30;;;;;;;;;;5059412;28;20415;-67
2023/10/08 02:55:23;;;;;;;4.00;3.20;;;;;;;;;;5063647;28;20468;-68
2023/10/08 02:57:50;;;;;;;7.07;3.17;;;;;;;;;;5064790;28;20849;-68
2023/10/08 03:00:17;;;;;;;8.53;3.67;;;;;;;;;;5065328;28;20443;-67
2023/10/08 03:02:42;;;;;;;6.57;3.40;;;;;;;;;;5063679;28;20417;-68
2023/10/08 03:05:13;;;;;;;5.73;3.07;;;;;;;;;;5064482;28;20421;-68
2023/10/08 03:07:39;;;;;;;4.83;2.70;;;;;;;;;;5063603;28;20440;-68
2023/10/08 03:10:06;;;;;;;7.93;3.40;;;;;;;;;;5064472;28;20504;-68
2023/10/08 03:12:33;;;;;;;5.90;2.93;;;;;;;;;;5063972;28;20416;-68
2023/10/08 03:15:12;;;;;;;8.13;3.73;;;;;;;;;;5063599;28;20464;-68
2023/10/08 03:17:39;;;;;;;4.23;2.23;;;;;;;;;;5063788;28;20451;-68
2023/10/08 03:20:29;;;;;;;6.13;2.70;;;;;;;;;;5063492;28;21037;-68
2023/10/08 03:22:51;;;;;;;5.07;2.90;;;;;;;;;;5063645;28;20502;-68
2023/10/08 03:25:17;;;;;;;7.10;3.13;;;;;;;;;;5063167;28;20451;-68
2023/10/08 03:27:44;;;;;;;6.30;2.47;;;;;;;;;;5064350;28;20518;-68
2023/10/08 03:30:16;;;;;;;5.43;2.60;;;;;;;;;;5064914;28;20418;-69
2023/10/08 03:32:45;;;;;;;6.07;2.53;;;;;;;;;;5064463;28;20931;-68
2023/10/08 03:35:12;;;;;;;7.27;2.40;;;;;;;;;;5063568;28;20465;-67
2023/10/08 03:37:46;;;;;;;7.07;2.27;;;;;;;;;;5062091;28;20440;-68
2023/10/08 03:40:42;;;;;;;9.77;3.10;;;;;;;;;;5063862;28;20409;-67
2023/10/08 03:43:20;;;;;;;3.23;2.13;;;;;;;;;;5062498;28;20435;-67
2023/10/08 03:45:59;;;;;;;5.87;3.70;;;;;;;;;;5063544;28;20432;-68
2023/10/08 03:48:25;;;;;;;8.63;2.83;;;;;;;;;;5063366;28;20441;-68
2023/10/08 03:50:57;;;;;;;5.90;2.90;;;;;;;;;;5061152;28;20938;-68
2023/10/08 03:53:23;;;;;;;8.87;3.47;;;;;;;;;;5062411;28;20467;-68
2023/10/08 03:55:52;;;;;;;5.40;3.17;;;;;;;;;;5062813;28;20934;-68
2023/10/08 03:58:32;;;;;;;11.93;3.93;;;;;;;;;;5063058;28;20517;-68
2023/10/08 04:01:08;;;;;;;4.37;2.27;;;;;;;;;;5063238;28;20407;-68
2023/10/08 04:04:16;;;;;;;6.03;3.10;;;;;;;;;;5063411;28;20631;-68
2023/10/08 04:14:17;;;;;;;3.37;2.90;;;;;;;;;;5053890;28;21004;-67
2023/10/08 04:16:43;;;;;;;6.00;2.30;;;;;;;;;;5052190;28;20441;-68
2023/10/08 04:19:10;;;;;;;7.70;3.23;;;;;;;;;;5053772;28;20445;-68
2023/10/08 04:21:39;;;;;;;3.63;2.07;;;;;;;;;;5054053;28;20536;-68
2023/10/08 04:24:06;;;;;;;5.97;2.83;;;;;;;;;;5052287;28;20841;-68
2023/10/08 04:26:32;;;;;;;6.83;2.17;;;;;;;;;;5053261;28;20427;-67
2023/10/08 04:29:01;;;;;;;6.97;3.00;;;;;;;;;;5052283;28;21004;-67
2023/10/08 04:31:37;;;;;;;5.63;2.50;;;;;;;;;;5053308;28;20413;-67
2023/10/08 04:34:15;;;;;;;8.97;3.00;;;;;;;;;;5053355;28;21033;-67
2023/10/08 04:36:41;;;;;;;7.77;2.90;;;;;;;;;;5053191;28;20780;-67
2023/10/08 04:39:14;;;;;;;6.43;2.67;;;;;;;;;;5053357;28;20425;-67
2023/10/08 04:41:42;;;;;;;9.90;4.00;;;;;;;;;;5051927;28;20835;-68
2023/10/08 04:44:14;;;;;;;6.30;2.73;;;;;;;;;;5053114;28;20413;-67
2023/10/08 04:46:46;;;;;;;7.40;3.30;;;;;;;;;;5052891;28;20420;-67
2023/10/08 04:49:27;;;;;;;6.10;2.67;;;;;;;;;;5053237;28;20410;-67
2023/10/08 04:51:56;;;;;;;7.17;2.43;;;;;;;;;;5053081;28;20493;-67
2023/10/08 04:54:23;;;;;;;7.50;2.80;;;;;;;;;;5053024;28;20457;-69
2023/10/08 04:56:49;;;;;;;11.40;4.10;;;;;;;;;;5052494;28;20491;-67
2023/10/08 04:59:21;;;;;;;5.30;2.10;;;;;;;;;;5052847;28;20420;-68
2023/10/08 05:04:45;;;;;;;3.97;2.63;;;;;;;;;;5052851;28;20408;-67
2023/10/08 05:07:21;;;;;;;6.47;3.43;;;;;;;;;;5052410;28;20962;-69
2023/10/08 05:12:34;;;;;;;7.83;2.60;;;;;;;;;;5052640;28;20401;-68
2023/10/08 05:18:13;;;;;;;4.50;2.70;;;;;;;;;;5052075;28;20819;-68
2023/10/08 05:28:35;;;;;;;6.20;3.17;;;;;;;;;;5052481;28;20431;-67
2023/10/08 05:36:18;;;;;;;7.90;3.03;;;;;;;;;;5051800;28;20424;-67
2023/10/08 05:39:00;;;;;;;7.57;2.83;;;;;;;;;;5051987;28;20432;-67
2023/10/08 05:41:51;;;;;;;5.90;2.63;;;;;;;;;;5051994;28;20400;-68
2023/10/08 05:47:06;;;;;;;10.67;3.83;;;;;;;;;;5051634;28;20443;-68
2023/10/08 06:02:29;;;;;;;10.77;4.07;;;;;;;;;;5051785;28;20419;-67
2023/10/08 06:07:56;;;;;;;8.23;4.00;;;;;;;;;;5051704;28;20448;-67
2023/10/08 06:13:13;;;;;;;4.40;3.27;;;;;;;;;;5051769;28;20472;-67
2023/10/08 06:18:31;;;;;;;7.40;2.87;;;;;;;;;;5051572;28;20460;-68
2023/10/08 06:21:08;;;;;;;8.97;4.00;;;12.40;28.00;;;;;;5050428;28;20496;-68
2023/10/08 06:23:35;;;;;;;5.70;2.77;;;12.50;27.40;;;;;;5051655;28;20931;-69
2023/10/08 06:28:35;;;;;;;5.97;2.43;;;12.80;23.50;;;;;;5032972;28;20453;-68
2023/10/08 06:31:06;;;;;;;11.27;3.67;;;12.80;22.80;;;;;;5035570;28;20418;-68
2023/10/08 06:33:33;;;;;;;5.40;2.73;;;13.00;20.80;;;;;;5035629;28;20206;-68
2023/10/08 06:36:02;;;;;;;9.63;4.60;;;13.10;19.90;;;;;;5035541;28;20808;-68
2023/10/08 06:38:34;;;;;;;5.33;2.90;;;13.30;18.30;;;;;;5034274;28;20956;-67
2023/10/08 06:41:08;;;;;;;9.73;2.73;;;13.40;16.80;;;;;;5049684;28;20950;-68
2023/10/08 06:43:36;;;;;;;8.90;2.93;;;13.60;15.40;;;;;;5045166;28;20491;-68
2023/10/08 06:46:02;;;;;;;8.67;3.43;;;13.70;13.80;;;;;;5041492;28;20990;-68
2023/10/08 06:48:29;;;;;;;7.33;3.53;;;13.80;10.40;;;;;;5055418;28;20947;-68
2023/10/08 06:50:56;;;;;;;10.23;3.67;;;13.90;9.90;;;;;;5054117;28;20424;-69
2023/10/08 06:53:23;;;;;;;7.80;3.43;;;14.00;9.70;;;;;;5055224;28;20852;-68
2023/10/08 06:55:54;;;;;;;7.20;3.13;;;14.10;9.00;;;;;;5053895;28;20420;-68
2023/10/08 06:58:20;;;;;;;7.80;3.30;;;14.20;8.10;;;;;;5053895;28;20447;-68
2023/10/08 07:00:48;;;;;;;10.57;4.83;;;14.30;7.60;;;;;;5054058;28;20932;-68
2023/10/08 07:03:15;;;;;;;8.87;3.63;;;14.40;6.70;;;;;;5055131;28;20649;-69
2023/10/08 07:05:44;;;;;;;5.73;2.70;;;14.50;6.80;;;;;;5054299;28;21087;-68
2023/10/08 07:08:13;;;;;;;6.93;3.50;;;14.70;5.80;;;;;;5054879;28;20870;-67
2023/10/08 07:10:41;;;;;;;6.40;3.10;;;14.70;6.10;;;;;;5053727;28;20416;-67
2023/10/08 07:13:07;;;;;;;6.20;3.53;;;14.90;6.20;;;;;;5054857;28;20445;-68
2023/10/08 07:15:38;;;;;;;9.70;4.10;;;15.10;4.90;;;;;;5054746;28;20447;-68
2023/10/08 07:18:09;;;;;;;14.07;4.30;;;15.40;4.30;;;;;;5054593;28;20475;-68
2023/10/08 07:20:45;;;;;;;8.33;3.37;;;15.70;3.20;;;;;;5040279;28;20452;-68
2023/10/08 07:23:24;;;;;;;3.70;2.67;;;16.00;2.20;;;;;;5034844;28;20394;-68
2023/10/08 07:26:01;;;;;;;5.03;3.07;;;16.40;1.00;;;;;;5034623;28;20433;-68
2023/10/08 07:28:29;;;;;;;12.60;4.80;;;16.80;1.00;;;;;;5035075;28;20436;-68
2023/10/08 07:30:55;;;;;;;11.93;3.50;;;17.00;1.00;;;;;;5034572;28;20452;-68
2023/10/08 07:33:24;;;;;;;5.97;3.80;;;17.10;1.00;;;;;;5054374;28;20432;-68
2023/10/08 07:35:54;;;;;;;14.03;5.47;;;17.20;1.00;;;;;;5054220;28;20166;-68
2023/10/08 07:38:21;;;;;;;6.67;3.97;;;17.30;1.00;;;;;;5054707;28;20429;-67
2023/10/08 07:40:48;;;;;;;8.20;3.93;;;17.40;1.00;;;;;;5054101;28;20409;-68
2023/10/08 07:43:13;;;;;;;4.50;3.40;;;17.50;1.00;;;;;;5054316;28;20819;-68
2023/10/08 07:45:40;;;;;;;7.27;4.00;;;17.70;1.00;;;;;;5054596;28;20543;-68
2023/10/08 07:48:09;;;;;;;6.40;4.40;;;18.00;1.00;;;;;;5054181;28;20236;-68
2023/10/08 07:50:41;;;;;;;17.97;3.80;;;18.40;1.00;;;;;;5051826;28;20425;-67
2023/10/08 07:53:07;;;;;;;4.83;3.60;;;;;;;;;;5053949;28;20546;-67
2023/10/08 07:55:35;;;;;;;3.57;2.83;;;;;;;;;;5053687;28;20555;-67
2023/10/08 07:58:04;;;;;;;6.77;3.23;;;;;;;;;;5053755;28;20432;-67
2023/10/08 08:00:38;;;;;;;15.10;4.80;;;;;;;;;;5053954;28;20581;-68
2023/10/08 08:03:04;;;;;;;4.87;4.00;;;;;;;;;;5053950;28;20491;-70
2023/10/08 08:05:31;;;;;;;7.00;3.53;;;;;;;;;;5053850;28;20488;-68
2023/10/08 08:07:59;;;;;;;5.57;3.33;;;;;;;;;;5053874;28;20440;-67
2023/10/08 08:10:25;;;;;;;5.20;4.47;;;;;;;;;;5053410;28;20417;-67
2023/10/08 08:12:56;;;;;;;7.63;3.80;;;;;;;;;;5053688;28;20416;-68
2023/10/08 08:15:22;;;;;;;9.43;4.27;;;;;;;;;;5053524;28;20457;-68
2023/10/08 08:17:49;;;;;;;7.30;4.73;;;;;;;;;;5053707;28;20445;-67
2023/10/08 08:20:18;;;;;;;5.00;4.07;;;;;;;;;;5053614;28;20975;-67
2023/10/08 08:22:53;;;;;;;3.60;3.30;;;;;;;;;;5053632;28;20746;-67
2023/10/08 08:25:42;;;;;;;7.63;4.33;;;;;;;;;;5053293;28;20761;-67
2023/10/08 08:28:16;;;;;;;4.50;4.10;;;;;;;;;;5053409;28;20431;-67
2023/10/08 08:30:46;;;;;;;6.73;4.40;;;;;;;;;;5053468;28;20409;-67
2023/10/08 08:33:12;;;;;;;5.60;4.73;;;;;;;;;;5053369;28;20927;-67
2023/10/08 08:35:38;;;;;;;5.30;4.40;;;;;;;;;;5039233;28;20468;-67
2023/10/08 08:38:05;;;;;;;6.13;5.03;;;;;;;;;;5033572;28;20434;-67
2023/10/08 08:40:32;;;;;;;5.00;4.50;;;;;;;;;;5031993;28;20421;-67
2023/10/08 08:43:02;;;;;;;6.37;4.50;;;;;;;;;;5033229;28;20967;-67
2023/10/08 08:45:33;;;;;;;7.40;4.50;;;;;;;;;;5032983;28;20418;-67
2023/10/08 08:47:59;;;;;;;6.87;5.00;;;;;;;;;;5033096;28;20430;-67
2023/10/08 08:50:26;;;;;;;6.30;4.47;;;;;;;;;;5033069;28;20411;-67
2023/10/08 08:52:52;;;;;;;9.60;4.53;;;;;;;;;;5032490;28;20411;-67
2023/10/08 08:55:20;;;;;;;7.27;3.87;;;;;;;;;;5032780;28;20462;-67
2023/10/08 08:57:50;;;;;;;6.53;5.00;;;;;;;;;;5032887;28;20434;-67
2023/10/08 09:00:17;;;;;;;5.60;4.60;;;;;;;;;;5032852;28;20402;-67
2023/10/08 09:02:44;;;;;;;12.43;4.30;;;;;;;;;;5032979;28;20781;-67
2023/10/08 09:05:23;;;;;;;5.30;4.37;;;;;;;;;;5032810;28;20413;-67
2023/10/08 09:08:06;;;;;;;6.60;4.10;;;;;;;;;;5034986;28;20951;-67
2023/10/08 09:10:36;;;;;;;4.37;3.97;;;;;;;;;;5041667;28;20424;-68
2023/10/08 09:13:03;;;;;;;6.67;4.90;;;;;;;;;;5034743;28;20414;-67
2023/10/08 09:15:29;;;;;;;6.27;5.17;;;;;;;;;;5033289;28;20457;-67
2023/10/08 09:17:56;;;;;;;4.47;4.07;;;;;;;;;;5032398;28;20454;-67
2023/10/08 09:20:22;;;;;;;6.40;4.90;;;;;;;;;;5032562;28;20414;-67
2023/10/08 09:23:24;;;;;;;13.23;5.37;;;;;;;;;;5032563;28;20806;-68
2023/10/08 09:25:51;;;;;;;6.50;5.07;;;;;;;;;;5010276;28;20478;-67
2023/10/08 09:28:18;;;;;;;7.93;4.27;;;;;;;;;;5028183;28;20441;-67
2023/10/08 09:30:48;;;;;;;8.80;4.20;;;;;;;;;;5032446;28;20449;-67
2023/10/08 09:33:14;;;;;;;6.27;4.67;;;;;;;;;;5032389;28;20489;-67
2023/10/08 09:35:40;;;;;;;5.27;3.77;;;;;;;;;;5046113;28;20409;-67
2023/10/08 09:38:10;;;;;;;5.80;5.17;;;;;;;;;;5052115;28;20435;-67
2023/10/08 09:40:41;;;;;;;5.93;4.30;;;;;;;;;;5052023;28;20819;-67
2023/10/08 09:43:08;;;;;;;9.03;6.23;;;;;;;;;;5052018;28;20451;-67
2023/10/08 09:45:34;;;;;;;9.67;4.90;;;;;;;;;;5051929;28;20420;-67
2023/10/08 09:48:01;;;;;;;5.90;5.20;;;;;;;;;;5052105;28;20547;-67
2023/10/08 09:50:32;;;;;;;12.97;4.87;;;;;;;;;;5050573;28;20878;-67
2023/10/08 09:53:06;;;;;;;6.30;5.13;;;;;;;;;;5051927;28;20458;-67
2023/10/08 09:55:32;;;;;;;5.23;4.50;;;;;;;;;;5051555;28;20824;-67
2023/10/08 09:57:58;;;;;;;5.77;4.60;;;;;;;;;;5051782;28;20841;-67
2023/10/08 10:00:31;;;;;;;6.00;4.90;;;;;;;;;;5051833;28;20492;-67
2023/10/08 10:03:07;;;;;;;6.00;5.17;;;;;;;;;;5050957;28;20404;-67
2023/10/08 10:05:36;;;;;;;7.53;4.70;;;;;;;;;;5051618;28;20440;-67
2023/10/08 10:08:05;;;;;;;5.73;5.23;;;;;;;;;;5051654;28;20429;-67
2023/10/08 10:10:38;;;;;;;6.53;4.60;;;;;;;;;;5050334;28;20421;-67
2023/10/08 10:13:04;;;;;;;6.87;4.77;;;;;;;;;;5051685;28;20409;-67
2023/10/08 10:15:34;;;;;;;7.10;4.93;;;;;;;;;;5051262;28;20456;-67
2023/10/08 10:18:10;;;;;;;6.80;5.37;;;;;;;;;;5053067;28;20448;-67
2023/10/08 10:20:40;;;;;;;5.90;5.30;;;;;;;;;;5051634;28;20408;-68
2023/10/08 10:23:29;;;;;;;6.33;4.87;;;;;;;;;;5051581;28;20413;-68
2023/10/08 10:25:57;;;;;;;12.67;6.30;;;;;;;;;;5040916;28;20461;-68
2023/10/08 10:28:23;;;;;;;7.10;4.90;;;;;;;;;;5051435;28;20456;-68
2023/10/08 10:30:51;;;;;;;7.60;5.00;;;;;;;;;;5051554;28;20413;-69
2023/10/08 10:33:17;;;;;;;8.97;5.47;;;;;;;;;;5051293;28;20420;-68
2023/10/08 10:35:50;;;;;;;8.77;5.60;;;;;;;;;;5051135;28;20413;-68
2023/10/08 10:38:20;;;;;;;9.20;5.90;;;;;;;;;;5051341;28;20912;-67
2023/10/08 10:40:56;;;;;;;10.60;5.67;;;;;;;;;;5051390;28;20432;-67
2023/10/08 10:43:30;;;;;;;14.87;6.53;;;;;;;;;;5051389;28;20420;-67
2023/10/08 10:45:55;;;;;;;11.00;5.23;;;;;;;;;;5051334;28;20417;-68
2023/10/08 10:48:22;;;;;;;10.00;5.20;;;;;;;;;;5051293;28;20428;-68
2023/10/08 10:53:30;;;;;;;6.43;5.00;;;;;;;;;;5051447;28;20406;-68
2023/10/08 10:56:04;;;;;;;7.63;5.27;;;;;;;;;;5051068;28;20424;-68
2023/10/08 10:58:39;;;;;;;8.50;5.40;;;;;;;;;;5049894;28;20437;-67
2023/10/08 11:01:23;;;;;;;10.03;5.83;;;;;;;;;;5051308;28;20420;-67
2023/10/08 11:03:51;;;;;;;7.33;6.40;;;;;;;;;;5051490;28;20405;-69
2023/10/08 11:06:22;;;;;;;6.63;5.43;;;;;;;;;;5048639;28;20433;-68
2023/10/08 11:08:48;;;;;;;9.10;6.47;;;;;;;;;;5049998;28;20844;-68
2023/10/08 11:11:17;;;;;;;9.60;6.10;;;;;;;;;;5050976;28;20409;-68
2023/10/08 11:13:46;;;;;;;9.23;5.27;;;;;;;;;;5051023;28;20944;-72
2023/10/08 11:16:16;;;;;;;9.50;5.83;;;;;;;;;;5054359;28;20417;-68
2023/10/08 11:18:46;;;;;;;9.03;5.13;;;;;;;;;;5054936;28;20452;-69
2023/10/08 11:21:15;;;;;;;7.30;5.10;;;;;;;;;;5054755;28;20424;-71
2023/10/08 11:24:33;;;;;;;9.13;5.73;;;;;;;;;;5054560;28;21023;-69
2023/10/08 11:26:39;;;;;;;11.23;5.80;;;;;;;;;;5050134;28;20414;-68
2023/10/08 11:29:05;;;;;;;10.83;5.90;;;;;;;;;;5055020;28;20885;-69
2023/10/08 11:31:34;;;;;;;6.77;5.77;;;;;;;;;;5054761;28;20413;-69
2023/10/08 11:34:01;;;;;;;9.80;6.50;;;;;;;;;;5053458;28;20452;-69
2023/10/08 11:36:28;;;;;;;9.23;5.50;;;;;;;;;;5054402;28;20839;-69
2023/10/08 11:39:01;;;;;;;11.70;5.33;;;;;;;;;;5054547;28;20742;-69
2023/10/08 11:41:28;;;;;;;7.23;5.50;;;;;;;;;;5054644;28;20443;-69
2023/10/08 11:43:58;;;;;;;8.23;5.53;;;;;;;;;;5054329;28;20446;-69
2023/10/08 11:46:38;;;;;;;5.60;5.10;;;;;;;;;;5054155;28;20417;-69
2023/10/08 11:49:04;;;;;;;7.07;5.10;;;;;;;;;;5054248;28;20500;-69
2023/10/08 11:51:34;;;;;;;14.20;5.90;;;;;;;;;;5054203;28;20417;-68
2023/10/08 11:54:01;;;;;;;8.83;6.50;;;;;;;;;;5054002;28;20461;-69
2023/10/08 11:56:27;;;;;;;8.33;6.40;;;;;;;;;;5053771;28;20916;-69
2023/10/08 11:58:56;;;;;;;6.57;5.83;;;;;;;;;;5054012;28;20822;-69
2023/10/08 12:01:23;;;;;;;7.07;5.33;;;;;;;;;;5040952;28;20425;-69
2023/10/08 12:03:49;;;;;;;5.80;4.57;;;;;;;;;;5033803;28;20422;-68
2023/10/08 12:06:18;;;;;;;6.40;5.13;;;;;;;;;;5033716;28;20428;-69
2023/10/08 12:08:45;;;;;;;7.77;5.83;;;;;;;;;;5033856;28;20473;-69
2023/10/08 12:11:12;;;;;;;15.50;5.97;;;;;;;;;;5033749;28;20425;-69
2023/10/08 12:13:44;;;;;;;8.90;6.00;;;;;;;;;;5033699;28;20461;-69
2023/10/08 12:16:12;;;;;;;11.57;5.13;;;;;;;;;;5048988;28;20425;-69
2023/10/08 12:18:43;;;;;;;12.27;7.47;;;;;;;;;;5033541;28;20914;-69
2023/10/08 12:21:10;;;;;;;33.57;8.03;;;;;;;;;;5033678;28;20414;-69
2023/10/08 12:23:40;;;;;;;8.90;5.53;;;;;;;;;;5033565;28;20414;-69
2023/10/08 12:26:11;;;;;;;6.27;5.60;;;;;;;;;;5032345;28;20540;-69
2023/10/08 12:28:37;;;;;;;10.93;7.07;;;;;;;;;;5033923;28;20823;-69
2023/10/08 12:31:07;;;;;;;8.87;6.83;;;;;;;;;;5033473;28;20496;-69
2023/10/08 12:33:33;;;;;;;10.93;5.30;;;;;;;;;;5033356;28;20777;-69
2023/10/08 12:36:10;;;;;;;9.83;5.67;;;;;;;;;;5049979;28;20504;-69
2023/10/08 12:38:36;;;;;;;10.77;6.87;;;;;;;;;;5053160;28;20487;-68
2023/10/08 12:41:11;;;;;;;7.27;6.27;;;;;;;;;;5053676;28;20537;-69
2023/10/08 12:43:38;;;;;;;8.17;6.60;;;;;;;;;;5053174;28;20458;-69
2023/10/08 12:46:10;;;;;;;14.90;6.00;;;;;;;;;;5051674;28;20912;-69
2023/10/08 12:48:36;;;;;;;6.83;6.10;;;;;;;;;;5053112;28;20457;-69
2023/10/08 12:51:05;;;;;;;14.00;5.67;;;;;;;;;;5053084;28;20416;-68
2023/10/08 12:53:34;;;;;;;11.97;6.00;;;;;;;;;;5052917;28;20409;-68
2023/10/08 12:56:05;;;;;;;6.47;5.07;;;;;;;;;;5052750;28;20869;-69
2023/10/08 12:58:34;;;;;;;15.20;5.47;;;;;;;;;;5053128;28;20457;-69
2023/10/08 13:01:03;;;;;;;9.40;6.07;;;;;;;;;;5052746;28;20413;-69
2023/10/08 13:03:33;;;;;;;8.20;5.57;;;;;;;;;;5051527;28;20409;-68
2023/10/08 13:06:05;;;;;;;7.87;6.03;;;;;;;;;;5052545;28;20921;-70
2023/10/08 13:08:31;;;;;;;8.63;6.00;;;;;;;;;;5052677;28;21039;-69
2023/10/08 13:11:01;;;;;;;11.27;5.70;;;;;;;;;;5052735;28;20463;-70
2023/10/08 13:13:34;;;;;;;5.93;5.33;;;;;;;;;;5052604;28;20479;-70
2023/10/08 13:16:06;;;;;;;10.67;6.03;;;;;;;;;;5052541;28;20409;-70
2023/10/08 13:18:33;;;;;;;10.93;6.63;;;;;;;;;;5052591;28;20502;-70
2023/10/08 13:20:59;;;;;;;12.53;7.00;;;;;;;;;;5051212;28;20452;-70
2023/10/08 13:23:25;;;;;;;9.03;5.37;;;;;;;;;;5052569;28;20424;-70
2023/10/08 13:25:54;;;;;;;14.90;7.10;;;;;;;;;;5052374;28;20405;-70
2023/10/08 13:28:23;;;;;;;6.97;6.17;;;;;;;;;;5052274;28;20425;-69
2023/10/08 13:30:52;;;;;;;10.40;5.23;;;;;;;;;;5052354;28;20405;-69
2023/10/08 13:33:19;;;;;;;6.93;6.23;;;;;;;;;;5052299;28;20463;-69
2023/10/08 13:35:49;;;;;;;11.53;5.90;;;;;;;;;;5051946;28;20923;-68
2023/10/08 13:38:16;;;;;;;10.10;6.20;;;;;;;;;;5051987;28;20893;-69
2023/10/08 13:41:01;;;;;;;10.50;5.67;;;;;;;;;;5052178;28;20448;-69
2023/10/08 13:43:33;;;;;;;10.17;5.80;;;;;;;;;;5052257;28;20402;-69
2023/10/08 13:46:03;;;;;;;7.70;5.40;;;;;;;;;;5052184;28;20435;-69
2023/10/08 13:48:32;;;;;;;8.80;5.87;;;;;;;;;;5051032;28;20433;-70
2023/10/08 13:50:58;;;;;;;9.73;5.70;;;;;;;;;;5051806;28;20503;-69
2023/10/08 13:53:29;;;;;;;6.03;4.80;;;;;;;;;;5051681;28;20483;-70
2023/10/08 13:55:56;;;;;;;8.00;5.33;;;;;;;;;;5051468;28;20417;-69
2023/10/08 13:58:22;;;;;;;11.50;5.90;;;;;;;;;;5051805;28;20436;-69
2023/10/08 14:00:52;;;;;;;15.80;5.80;;;;;;;;;;5051706;28;20413;-69
2023/10/08 14:03:21;;;;;;;6.40;5.27;;;;;;;;;;5051912;28;20449;-69
2023/10/08 14:05:50;;;;;;;6.50;5.03;;;;;;;;;;5051687;28;20429;-69
2023/10/08 14:08:16;;;;;;;9.53;5.23;;;;;;;;;;5051620;28;20440;-69
2023/10/08 14:10:43;;;;;;;10.43;6.50;;;;;;;;;;5051668;28;20405;-69
2023/10/08 14:13:09;;;;;;;13.80;6.40;;;;;;;;;;5051612;28;20413;-69
2023/10/08 14:15:42;;;;;;;7.33;5.40;;;;;;;;;;5051697;28;20547;-69
2023/10/08 14:18:11;;;;;;;11.27;6.20;;;;;;;;;;5050216;28;20468;-70
2023/10/08 14:20:40;;;;;;;8.07;5.43;;;;;;;;;;5051696;28;20416;-70
2023/10/08 14:23:06;;;;;;;5.53;5.00;;;;;;;;;;5051487;28;20445;-69
2023/10/08 14:25:33;;;;;;;10.40;6.00;;;;;;;;;;5051336;28;20409;-70
2023/10/08 14:28:04;;;;;;;6.27;5.37;;;;;;;;;;5051448;28;20429;-69
2023/10/08 14:30:30;;;;;;;8.83;5.30;;;;;;;;;;5051349;28;20779;-70
2023/10/08 14:32:58;;;;;;;15.40;6.07;;;;;;;;;;5051450;28;20463;-70
2023/10/08 14:43:39;;;;;;;10.53;6.10;;;;;;;;;;5050823;28;20939;-70
2023/10/08 14:46:09;;;;;;;16.67;5.70;;;;;;;;;;5051133;28;20409;-70
2023/10/08 14:48:35;;;;;;;8.40;5.43;;;;;;;;;;5051284;28;20428;-70
2023/10/08 14:51:02;;;;;;;10.80;6.37;;;;;;;;;;5054487;28;20954;-70
2023/10/08 14:53:29;;;;;;;8.60;5.73;;;;;;;;;;5054958;28;20471;-70
2023/10/08 14:55:55;;;;;;;9.40;6.13;;;;;;;;;;5054885;28;20443;-70
2023/10/08 14:58:22;;;;;;;8.10;5.97;;;;;;;;;;5055126;28;20452;-70
2023/10/08 15:00:48;;;;;;;14.37;5.07;;;;;;;;;;5053549;28;20786;-70
2023/10/08 15:03:14;;;;;;;11.40;6.37;;;;;;;;;;5053610;28;20416;-70
2023/10/08 15:05:41;;;;;;;7.60;6.00;;;;;;;;;;5054788;28;20908;-70
2023/10/08 15:08:09;;;;;;;6.80;5.73;;;;;;;;;;5054927;28;20924;-70
2023/10/08 15:10:36;;;;;;;8.50;5.23;;;;;;;;;;5054920;28;20436;-70
2023/10/08 15:13:02;;;;;;;7.17;4.90;;;;;;;;;;5055044;28;20416;-71
2023/10/08 15:15:34;;;;;;;5.83;5.30;;;;;;;;;;5054357;28;20461;-70
2023/10/08 15:18:01;;;;;;;5.63;5.10;;;;;;;;;;5054624;28;20448;-70
2023/10/08 15:20:30;;;;;;;6.57;5.70;;;;;;;;;;5054715;28;20409;-70
2023/10/08 15:22:56;;;;;;;9.27;6.03;;;;;;;;;;5054655;28;20944;-70
2023/10/08 15:25:22;;;;;;;12.40;6.13;;;;;;;;;;5054532;28;20413;-70
2023/10/08 15:27:48;;;;;;;14.03;5.43;;;;;;;;;;5054324;28;20997;-70
2023/10/08 15:30:16;;;;;;;13.87;5.67;;;;;;;;;;5054544;28;20409;-70
2023/10/08 15:32:43;;;;;;;6.70;5.90;;;;;;;;;;5054729;28;20417;-70
2023/10/08 15:35:10;;;;;;;5.73;5.00;;;;;;;;;;5053604;28;20531;-70
2023/10/08 15:37:40;;;;;;;7.57;5.93;;;;;;;;;;5054457;28;20447;-70
2023/10/08 15:40:06;;;;;;;8.17;5.20;;;;;;;;;;5054427;28;20428;-70
2023/10/08 15:42:36;;;;;;;6.50;5.57;;;;;;;;;;5052953;28;20768;-70
2023/10/08 15:45:03;;;;;;;5.67;4.90;;;;;;;;;;5054014;28;20904;-69
2023/10/08 15:47:30;;;;;;;6.60;5.17;;;;;;;;;;5054243;28;20472;-70
2023/10/08 15:49:58;;;;;;;8.37;5.33;;;;;;;;;;5054129;28;20412;-70